createdAt,value
2019-03-28T00:00:56.414Z,1027.10
2019-03-28T00:01:56.436Z,1027.08
2019-03-28T00:02:56.474Z,1027.11
2019-03-28T00:03:56.482Z,1027.09
2019-03-28T00:04:56.497Z,1027.08
2019-03-28T00:05:56.528Z,1027.08
2019-03-28T00:06:56.550Z,1027.05
2019-03-28T00:07:56.567Z,1027.06
2019-03-28T00:08:56.590Z,1027.08
2019-03-28T00:09:56.612Z,1027.07
2019-03-28T00:10:56.636Z,1027.05
2019-03-28T00:11:56.660Z,1027.03
2019-03-28T00:12:56.683Z,1027.06
2019-03-28T00:13:56.700Z,1027.07
2019-03-28T00:14:56.732Z,1027.05
2019-03-28T00:15:56.750Z,1027.06
2019-03-28T00:16:56.769Z,1027.03
2019-03-28T00:17:56.814Z,1027.04
2019-03-28T00:18:57.572Z,1026.99
2019-03-28T00:19:56.842Z,1026.99
2019-03-28T00:20:56.860Z,1026.99
2019-03-28T00:21:56.878Z,1026.99
2019-03-28T00:22:56.902Z,1026.98
2019-03-28T00:23:57.291Z,1027.00
2019-03-28T00:24:56.954Z,1027.00
2019-03-28T00:25:56.970Z,1027.00
2019-03-28T00:26:56.994Z,1027.01
2019-03-28T00:27:57.008Z,1027.00
2019-03-28T00:28:57.039Z,1026.99
2019-03-28T00:29:57.065Z,1027.00
2019-03-28T00:30:57.076Z,1026.95
2019-03-28T00:31:57.115Z,1026.98
2019-03-28T00:32:57.124Z,1027.00
2019-03-28T00:33:57.154Z,1026.99
2019-03-28T00:34:57.169Z,1026.96
2019-03-28T00:35:57.197Z,1026.93
2019-03-28T00:36:57.217Z,1026.99
2019-03-28T00:37:57.236Z,1026.97
2019-03-28T00:38:57.264Z,1027.00
2019-03-28T00:39:57.282Z,1027.01
2019-03-28T00:40:57.308Z,1026.97
2019-03-28T00:41:57.323Z,1026.97
2019-03-28T00:42:57.354Z,1026.98
2019-03-28T00:43:57.373Z,1026.94
2019-03-28T00:44:57.394Z,1027.00
2019-03-28T00:45:57.517Z,1026.97
2019-03-28T00:46:57.441Z,1026.99
2019-03-28T00:47:57.456Z,1026.98
2019-03-28T00:48:57.478Z,1026.99
2019-03-28T00:49:57.508Z,1026.93
2019-03-28T00:50:57.524Z,1026.97
2019-03-28T00:51:57.547Z,1026.95
2019-03-28T00:52:57.585Z,1026.95
2019-03-28T00:53:57.590Z,1026.93
2019-03-28T00:54:57.614Z,1026.97
2019-03-28T00:55:57.630Z,1026.98
2019-03-28T00:56:57.668Z,1026.98
2019-03-28T00:57:57.680Z,1026.97
2019-03-28T00:58:57.704Z,1026.96
2019-03-28T00:59:57.728Z,1026.98
2019-03-28T01:00:57.742Z,1026.97
2019-03-28T01:01:57.771Z,1026.95
2019-03-28T01:02:57.802Z,1026.95
2019-03-28T01:03:57.820Z,1026.94
2019-03-28T01:04:57.836Z,1026.97
2019-03-28T01:05:57.860Z,1026.98
2019-03-28T01:06:57.881Z,1027.00
2019-03-28T01:07:57.924Z,1027.01
2019-03-28T01:08:57.923Z,1027.05
2019-03-28T01:09:57.944Z,1027.02
2019-03-28T01:10:57.977Z,1027.01
2019-03-28T01:11:57.994Z,1026.97
2019-03-28T01:12:58.013Z,1026.97
2019-03-28T01:13:58.033Z,1027.00
2019-03-28T01:14:58.176Z,1027.00
2019-03-28T01:15:58.080Z,1027.02
2019-03-28T01:16:58.105Z,1026.97
2019-03-28T01:17:58.126Z,1027.03
2019-03-28T01:18:58.144Z,1027.00
2019-03-28T01:19:58.169Z,1026.99
2019-03-28T01:20:58.191Z,1027.03
2019-03-28T01:21:58.217Z,1027.03
2019-03-28T01:22:58.243Z,1027.03
2019-03-28T01:23:58.262Z,1027.00
2019-03-28T01:24:58.284Z,1027.03
2019-03-28T01:25:58.310Z,1027.01
2019-03-28T01:26:58.958Z,1027.05
2019-03-28T01:27:58.349Z,1027.04
2019-03-28T01:28:58.370Z,1027.02
2019-03-28T01:29:58.392Z,1027.02
2019-03-28T01:30:58.417Z,1027.00
2019-03-28T01:31:58.437Z,1026.99
2019-03-28T01:32:58.454Z,1027.04
2019-03-28T01:33:58.483Z,1027.00
2019-03-28T01:34:58.509Z,1026.99
2019-03-28T01:35:58.530Z,1027.01
2019-03-28T01:36:58.545Z,1026.99
2019-03-28T01:37:58.577Z,1026.99
2019-03-28T01:38:58.591Z,1027.02
2019-03-28T01:39:58.620Z,1026.99
2019-03-28T01:40:58.638Z,1027.00
2019-03-28T01:41:58.656Z,1026.98
2019-03-28T01:42:58.684Z,1027.01
2019-03-28T01:43:58.701Z,1026.99
2019-03-28T01:44:58.730Z,1027.01
2019-03-28T01:45:59.296Z,1027.02
2019-03-28T01:46:58.771Z,1027.00
2019-03-28T01:47:58.792Z,1027.01
2019-03-28T01:48:58.825Z,1027.02
2019-03-28T01:49:58.839Z,1026.98
2019-03-28T01:50:58.854Z,1027.04
2019-03-28T01:51:58.886Z,1027.04
2019-03-28T01:52:58.906Z,1027.03
2019-03-28T01:53:58.924Z,1027.02
2019-03-28T01:54:58.948Z,1026.99
2019-03-28T01:55:58.978Z,1027.01
2019-03-28T01:57:10.422Z,1027.00
2019-03-28T01:57:59.020Z,1027.00
2019-03-28T01:58:59.048Z,1027.03
2019-03-28T01:59:59.059Z,1027.02
2019-03-28T02:00:59.087Z,1027.03
2019-03-28T02:01:59.109Z,1027.02
2019-03-28T02:02:59.127Z,1027.05
2019-03-28T02:03:59.156Z,1027.03
2019-03-28T02:04:59.170Z,1027.01
2019-03-28T02:05:59.204Z,1027.04
2019-03-28T02:06:59.370Z,1027.03
2019-03-28T02:07:59.242Z,1027.05
2019-03-28T02:08:59.260Z,1027.03
2019-03-28T02:09:59.281Z,1027.03
2019-03-28T02:10:59.308Z,1027.00
2019-03-28T02:11:59.333Z,1027.03
2019-03-28T02:12:59.356Z,1027.01
2019-03-28T02:13:59.370Z,1027.04
2019-03-28T02:14:59.394Z,1027.00
2019-03-28T02:15:59.425Z,1027.02
2019-03-28T02:16:59.437Z,1027.00
2019-03-28T02:17:59.460Z,1027.05
2019-03-28T02:18:59.488Z,1027.00
2019-03-28T02:19:59.515Z,1027.00
2019-03-28T02:20:59.529Z,1027.00
2019-03-28T02:21:59.554Z,1027.01
2019-03-28T02:22:59.574Z,1027.04
2019-03-28T02:23:59.598Z,1027.06
2019-03-28T02:24:59.624Z,1027.03
2019-03-28T02:25:59.643Z,1027.10
2019-03-28T02:26:59.668Z,1027.08
2019-03-28T02:27:59.684Z,1027.03
2019-03-28T02:28:59.703Z,1027.06
2019-03-28T02:29:59.728Z,1027.06
2019-03-28T02:30:59.746Z,1027.06
2019-03-28T02:31:59.793Z,1027.04
2019-03-28T02:33:00.019Z,1027.08
2019-03-28T02:33:59.815Z,1027.11
2019-03-28T02:34:59.857Z,1027.11
2019-03-28T02:35:59.878Z,1027.12
2019-03-28T02:36:59.884Z,1027.11
2019-03-28T02:37:59.906Z,1027.10
2019-03-28T02:38:59.940Z,1027.15
2019-03-28T02:39:59.949Z,1027.12
2019-03-28T02:40:59.979Z,1027.14
2019-03-28T02:42:00.010Z,1027.07
2019-03-28T02:43:00.032Z,1027.08
2019-03-28T02:44:00.042Z,1027.08
2019-03-28T02:45:00.065Z,1027.12
2019-03-28T02:46:00.098Z,1027.13
2019-03-28T02:47:00.115Z,1027.12
2019-03-28T02:48:00.129Z,1027.12
2019-03-28T02:49:00.148Z,1027.16
2019-03-28T02:50:00.458Z,1027.17
2019-03-28T02:51:00.201Z,1027.18
2019-03-28T02:52:00.219Z,1027.12
2019-03-28T02:53:00.257Z,1027.13
2019-03-28T02:54:00.262Z,1027.15
2019-03-28T02:55:00.595Z,1027.14
2019-03-28T02:56:00.310Z,1027.15
2019-03-28T02:57:00.341Z,1027.15
2019-03-28T02:58:00.354Z,1027.13
2019-03-28T02:59:00.381Z,1027.11
2019-03-28T03:00:00.430Z,1027.13
2019-03-28T03:01:00.423Z,1027.11
2019-03-28T03:02:00.466Z,1027.15
2019-03-28T03:03:00.463Z,1027.14
2019-03-28T03:04:00.493Z,1027.15
2019-03-28T03:05:00.514Z,1027.15
2019-03-28T03:06:00.528Z,1027.17
2019-03-28T03:07:00.561Z,1027.19
2019-03-28T03:08:00.576Z,1027.16
2019-03-28T03:09:00.603Z,1027.17
2019-03-28T03:10:00.625Z,1027.15
2019-03-28T03:11:00.657Z,1027.20
2019-03-28T03:12:01.349Z,1027.12
2019-03-28T03:13:00.686Z,1027.12
2019-03-28T03:14:00.707Z,1027.14
2019-03-28T03:15:00.803Z,1027.14
2019-03-28T03:16:00.757Z,1027.12
2019-03-28T03:17:00.777Z,1027.16
2019-03-28T03:18:00.796Z,1027.15
2019-03-28T03:19:00.828Z,1027.17
2019-03-28T03:20:00.855Z,1027.12
2019-03-28T03:21:00.885Z,1027.14
2019-03-28T03:22:00.902Z,1027.16
2019-03-28T03:23:00.914Z,1027.18
2019-03-28T03:24:00.936Z,1027.15
2019-03-28T03:25:00.981Z,1027.15
2019-03-28T03:26:00.983Z,1027.16
2019-03-28T03:27:01.007Z,1027.16
2019-03-28T03:28:01.023Z,1027.19
2019-03-28T03:29:01.044Z,1027.17
2019-03-28T03:30:01.076Z,1027.15
2019-03-28T03:31:01.093Z,1027.20
2019-03-28T03:32:01.110Z,1027.17
2019-03-28T03:33:01.131Z,1027.17
2019-03-28T03:34:01.162Z,1027.16
2019-03-28T03:35:01.968Z,1027.12
2019-03-28T03:36:01.205Z,1027.13
2019-03-28T03:37:01.226Z,1027.18
2019-03-28T03:38:01.249Z,1027.14
2019-03-28T03:39:01.268Z,1027.18
2019-03-28T03:40:01.298Z,1027.21
2019-03-28T03:41:01.322Z,1027.16
2019-03-28T03:42:01.337Z,1027.15
2019-03-28T03:43:01.361Z,1027.18
2019-03-28T03:44:01.382Z,1027.16
2019-03-28T03:45:01.408Z,1027.17
2019-03-28T03:46:01.903Z,1027.20
2019-03-28T03:47:01.442Z,1027.14
2019-03-28T03:48:01.468Z,1027.16
2019-03-28T03:49:01.488Z,1027.23
2019-03-28T03:50:01.515Z,1027.21
2019-03-28T03:51:01.543Z,1027.24
2019-03-28T03:52:01.557Z,1027.24
2019-03-28T03:53:01.582Z,1027.27
2019-03-28T03:54:01.607Z,1027.22
2019-03-28T03:55:01.639Z,1027.28
2019-03-28T03:56:01.644Z,1027.27
2019-03-28T03:57:01.673Z,1027.29
2019-03-28T03:58:15.458Z,1027.23
2019-03-28T03:59:01.733Z,1027.30
2019-03-28T04:00:01.767Z,1027.29
2019-03-28T04:01:01.759Z,1027.29
2019-03-28T04:02:01.776Z,1027.27
2019-03-28T04:03:03.013Z,1027.27
2019-03-28T04:04:01.833Z,1027.31
2019-03-28T04:05:01.847Z,1027.34
2019-03-28T04:06:01.864Z,1027.29
2019-03-28T04:07:01.916Z,1027.34
2019-03-28T04:08:01.923Z,1027.30
2019-03-28T04:09:01.928Z,1027.33
2019-03-28T04:10:01.967Z,1027.32
2019-03-28T04:11:01.988Z,1027.30
2019-03-28T04:12:02.007Z,1027.32
2019-03-28T04:13:02.034Z,1027.32
2019-03-28T04:14:02.634Z,1027.27
2019-03-28T04:15:02.094Z,1027.28
2019-03-28T04:16:02.087Z,1027.33
2019-03-28T04:17:02.116Z,1027.26
2019-03-28T04:18:02.136Z,1027.30
2019-03-28T04:19:02.162Z,1027.34
2019-03-28T04:20:02.206Z,1027.30
2019-03-28T04:21:02.213Z,1027.30
2019-03-28T04:22:02.228Z,1027.35
2019-03-28T04:23:02.245Z,1027.32
2019-03-28T04:24:02.267Z,1027.37
2019-03-28T04:25:02.296Z,1027.36
2019-03-28T04:26:02.315Z,1027.39
2019-03-28T04:27:02.343Z,1027.40
2019-03-28T04:28:02.361Z,1027.40
2019-03-28T04:29:02.392Z,1027.40
2019-03-28T04:30:02.417Z,1027.42
2019-03-28T04:31:02.422Z,1027.43
2019-03-28T04:32:02.460Z,1027.44
2019-03-28T04:33:02.471Z,1027.47
2019-03-28T04:34:07.512Z,1027.46
2019-03-28T04:35:02.622Z,1027.48
2019-03-28T04:36:02.552Z,1027.46
2019-03-28T04:37:02.558Z,1027.49
2019-03-28T04:38:02.582Z,1027.49
2019-03-28T04:39:02.612Z,1027.57
2019-03-28T04:40:02.625Z,1027.56
2019-03-28T04:41:02.667Z,1027.52
2019-03-28T04:42:02.670Z,1027.55
2019-03-28T04:43:02.721Z,1027.59
2019-03-28T04:44:02.723Z,1027.56
2019-03-28T04:45:05.422Z,1027.60
2019-03-28T04:46:02.762Z,1027.62
2019-03-28T04:47:02.778Z,1027.63
2019-03-28T04:48:02.798Z,1027.62
2019-03-28T04:49:02.828Z,1027.61
2019-03-28T04:50:02.849Z,1027.60
2019-03-28T04:51:02.875Z,1027.63
2019-03-28T04:52:02.891Z,1027.64
2019-03-28T04:53:02.918Z,1027.64
2019-03-28T04:54:03.538Z,1027.62
2019-03-28T04:55:02.960Z,1027.63
2019-03-28T04:56:02.981Z,1027.67
2019-03-28T04:57:03.018Z,1027.64
2019-03-28T04:58:03.026Z,1027.67
2019-03-28T04:59:03.053Z,1027.68
2019-03-28T05:00:03.078Z,1027.71
2019-03-28T05:01:03.098Z,1027.68
2019-03-28T05:02:04.379Z,1027.66
2019-03-28T05:03:03.142Z,1027.71
2019-03-28T05:04:03.228Z,1027.68
2019-03-28T05:05:03.178Z,1027.69
2019-03-28T05:06:03.215Z,1027.73
2019-03-28T05:07:03.246Z,1027.67
2019-03-28T05:08:03.248Z,1027.69
2019-03-28T05:09:03.270Z,1027.70
2019-03-28T05:10:03.299Z,1027.72
2019-03-28T05:11:03.348Z,1027.67
2019-03-28T05:12:03.338Z,1027.71
2019-03-28T05:13:03.358Z,1027.68
2019-03-28T05:14:03.403Z,1027.71
2019-03-28T05:15:03.410Z,1027.71
2019-03-28T05:16:03.429Z,1027.73
2019-03-28T05:17:03.448Z,1027.77
2019-03-28T05:18:03.489Z,1027.71
2019-03-28T05:19:03.499Z,1027.73
2019-03-28T05:20:03.519Z,1027.74
2019-03-28T05:21:03.548Z,1027.78
2019-03-28T05:22:03.567Z,1027.71
2019-03-28T05:23:03.584Z,1027.73
2019-03-28T05:24:03.603Z,1027.79
2019-03-28T05:25:03.640Z,1027.82
2019-03-28T05:26:03.659Z,1027.80
2019-03-28T05:27:03.674Z,1027.82
2019-03-28T05:28:03.696Z,1027.82
2019-03-28T05:29:03.722Z,1027.87
2019-03-28T05:30:06.467Z,1027.87
2019-03-28T05:31:03.760Z,1027.88
2019-03-28T05:32:03.792Z,1027.88
2019-03-28T05:33:03.812Z,1027.87
2019-03-28T05:34:03.830Z,1027.85
2019-03-28T05:35:03.860Z,1027.90
2019-03-28T05:36:04.546Z,1027.88
2019-03-28T05:37:03.898Z,1027.87
2019-03-28T05:38:03.927Z,1027.86
2019-03-28T05:39:03.964Z,1027.91
2019-03-28T05:40:03.968Z,1027.91
2019-03-28T05:41:03.986Z,1027.92
2019-03-28T05:42:04.026Z,1027.94
2019-03-28T05:43:04.033Z,1027.94
2019-03-28T05:44:04.056Z,1027.98
2019-03-28T05:45:04.080Z,1027.95
2019-03-28T05:46:04.108Z,1028.01
2019-03-28T05:47:04.124Z,1028.03
2019-03-28T05:48:04.146Z,1028.02
2019-03-28T05:49:04.188Z,1027.99
2019-03-28T05:50:04.214Z,1028.05
2019-03-28T05:51:04.212Z,1028.04
2019-03-28T05:52:04.238Z,1028.04
2019-03-28T05:53:04.270Z,1028.06
2019-03-28T05:54:04.279Z,1028.04
2019-03-28T05:55:05.538Z,1028.05
2019-03-28T05:56:04.333Z,1028.05
2019-03-28T05:57:04.354Z,1028.03
2019-03-28T05:58:04.370Z,1028.07
2019-03-28T05:59:10.914Z,1028.05
2019-03-28T06:00:04.417Z,1028.04
2019-03-28T06:01:04.439Z,1028.06
2019-03-28T06:02:04.458Z,1028.08
2019-03-28T06:03:04.502Z,1028.08
2019-03-28T06:04:04.510Z,1028.12
2019-03-28T06:05:04.531Z,1028.15
2019-03-28T06:06:04.552Z,1028.15
2019-03-28T06:07:04.568Z,1028.14
2019-03-28T06:08:04.599Z,1028.13
2019-03-28T06:09:04.613Z,1028.17
2019-03-28T06:10:04.651Z,1028.16
2019-03-28T06:11:04.664Z,1028.20
2019-03-28T06:12:04.686Z,1028.22
2019-03-28T06:13:04.710Z,1028.25
2019-03-28T06:14:04.728Z,1028.28
2019-03-28T06:15:04.746Z,1028.29
2019-03-28T06:16:04.774Z,1028.29
2019-03-28T06:17:04.802Z,1028.33
2019-03-28T06:18:04.819Z,1028.30
2019-03-28T06:19:04.844Z,1028.34
2019-03-28T06:20:04.866Z,1028.41
2019-03-28T06:21:04.882Z,1028.39
2019-03-28T06:22:04.904Z,1028.40
2019-03-28T06:23:04.930Z,1028.42
2019-03-28T06:24:05.369Z,1028.41
2019-03-28T06:25:05.927Z,1028.39
2019-03-28T06:26:05.024Z,1028.39
2019-03-28T06:27:05.021Z,1028.45
2019-03-28T06:28:05.060Z,1028.43
2019-03-28T06:29:05.061Z,1028.45
2019-03-28T06:30:05.085Z,1028.47
2019-03-28T06:31:05.116Z,1028.46
2019-03-28T06:32:05.137Z,1028.48
2019-03-28T06:33:05.160Z,1028.51
2019-03-28T06:34:05.170Z,1028.49
2019-03-28T06:35:05.200Z,1028.52
2019-03-28T06:36:05.219Z,1028.51
2019-03-28T06:37:05.242Z,1028.54
2019-03-28T06:38:05.263Z,1028.55
2019-03-28T06:39:05.293Z,1028.54
2019-03-28T06:40:05.622Z,1028.54
2019-03-28T06:41:05.329Z,1028.57
2019-03-28T06:42:05.369Z,1028.56
2019-03-28T06:43:05.386Z,1028.58
2019-03-28T06:44:05.401Z,1028.56
2019-03-28T06:45:05.434Z,1028.58
2019-03-28T06:46:05.442Z,1028.61
2019-03-28T06:47:05.466Z,1028.59
2019-03-28T06:48:05.486Z,1028.56
2019-03-28T06:49:05.528Z,1028.59
2019-03-28T06:50:05.550Z,1028.59
2019-03-28T06:51:05.554Z,1028.63
2019-03-28T06:52:05.593Z,1028.63
2019-03-28T06:53:05.600Z,1028.66
2019-03-28T06:54:05.620Z,1028.67
2019-03-28T06:55:05.648Z,1028.71
2019-03-28T06:56:05.682Z,1028.68
2019-03-28T06:57:05.692Z,1028.71
2019-03-28T06:58:05.718Z,1028.70
2019-03-28T06:59:05.743Z,1028.69
2019-03-28T07:00:05.760Z,1028.72
2019-03-28T07:01:05.785Z,1028.70
2019-03-28T07:02:05.806Z,1028.69
2019-03-28T07:03:05.832Z,1028.73
2019-03-28T07:04:05.848Z,1028.72
2019-03-28T07:05:05.874Z,1028.70
2019-03-28T07:06:05.907Z,1028.69
2019-03-28T07:07:06.626Z,1028.67
2019-03-28T07:08:05.946Z,1028.75
2019-03-28T07:09:05.964Z,1028.71
2019-03-28T07:10:05.990Z,1028.76
2019-03-28T07:11:06.014Z,1028.74
2019-03-28T07:12:06.034Z,1028.78
2019-03-28T07:13:06.059Z,1028.76
2019-03-28T07:14:06.078Z,1028.75
2019-03-28T07:15:06.105Z,1028.76
2019-03-28T07:16:06.124Z,1028.78
2019-03-28T07:17:06.151Z,1028.73
2019-03-28T07:18:06.168Z,1028.76
2019-03-28T07:19:06.190Z,1028.77
2019-03-28T07:20:08.799Z,1028.78
2019-03-28T07:21:06.233Z,1028.75
2019-03-28T07:22:06.262Z,1028.77
2019-03-28T07:23:06.283Z,1028.74
2019-03-28T07:24:06.306Z,1028.77
2019-03-28T07:25:06.327Z,1028.80
2019-03-28T07:26:06.350Z,1028.77
2019-03-28T07:27:06.372Z,1028.78
2019-03-28T07:28:06.701Z,1028.75
2019-03-28T07:29:06.432Z,1028.78
2019-03-28T07:30:06.442Z,1028.82
2019-03-28T07:31:06.467Z,1028.80
2019-03-28T07:32:06.505Z,1028.84
2019-03-28T07:33:06.515Z,1028.83
2019-03-28T07:34:06.534Z,1028.85
2019-03-28T07:35:06.551Z,1028.84
2019-03-28T07:36:06.576Z,1028.88
2019-03-28T07:37:06.603Z,1028.87
2019-03-28T07:38:06.620Z,1028.85
2019-03-28T07:39:06.647Z,1028.89
2019-03-28T07:40:06.674Z,1028.91
2019-03-28T07:41:06.691Z,1028.89
2019-03-28T07:42:06.711Z,1028.90
2019-03-28T07:43:06.758Z,1028.94
2019-03-28T07:44:06.764Z,1028.92
2019-03-28T07:45:06.794Z,1028.93
2019-03-28T07:46:06.802Z,1028.88
2019-03-28T07:47:06.827Z,1028.99
2019-03-28T07:48:06.850Z,1028.95
2019-03-28T07:49:06.873Z,1028.96
2019-03-28T07:50:06.898Z,1029.02
2019-03-28T07:51:06.931Z,1029.02
2019-03-28T07:52:06.943Z,1029.08
2019-03-28T07:53:06.958Z,1029.00
2019-03-28T07:54:06.994Z,1029.06
2019-03-28T07:55:07.010Z,1029.03
2019-03-28T07:56:07.036Z,1029.05
2019-03-28T07:57:07.052Z,1029.00
2019-03-28T07:58:07.683Z,1029.03
2019-03-28T07:59:07.103Z,1029.03
2019-03-28T08:00:07.126Z,1029.03
2019-03-28T08:01:07.153Z,1029.05
2019-03-28T08:02:07.167Z,1029.07
2019-03-28T08:03:07.204Z,1029.05
2019-03-28T08:04:07.215Z,1029.05
2019-03-28T08:05:07.237Z,1029.07
2019-03-28T08:06:07.259Z,1029.11
2019-03-28T08:07:07.283Z,1029.01
2019-03-28T08:08:07.311Z,1029.05
2019-03-28T08:09:07.321Z,1029.05
2019-03-28T08:10:07.359Z,1029.07
2019-03-28T08:11:07.375Z,1029.09
2019-03-28T08:12:21.469Z,1029.09
2019-03-28T08:13:07.427Z,1029.07
2019-03-28T08:14:07.440Z,1029.06
2019-03-28T08:15:07.465Z,1029.07
2019-03-28T08:16:07.485Z,1029.07
2019-03-28T08:17:07.513Z,1029.05
2019-03-28T08:18:07.537Z,1029.05
2019-03-28T08:19:08.071Z,1029.07
2019-03-28T08:20:07.600Z,1029.07
2019-03-28T08:21:07.620Z,1029.07
2019-03-28T08:22:07.621Z,1029.04
2019-03-28T08:23:07.645Z,1029.06
2019-03-28T08:24:07.666Z,1029.06
2019-03-28T08:25:11.405Z,1029.11
2019-03-28T08:26:07.718Z,1029.12
2019-03-28T08:27:07.742Z,1029.13
2019-03-28T08:28:07.765Z,1029.16
2019-03-28T08:29:07.790Z,1029.17
2019-03-28T08:30:18.302Z,1029.20
2019-03-28T08:31:07.826Z,1029.24
2019-03-28T08:32:08.887Z,1029.25
2019-03-28T08:33:07.876Z,1029.22
2019-03-28T08:34:07.896Z,1029.26
2019-03-28T08:35:07.927Z,1029.27
2019-03-28T08:36:07.942Z,1029.24
2019-03-28T08:37:07.971Z,1029.22
2019-03-28T08:38:10.016Z,1029.25
2019-03-28T08:39:08.010Z,1029.30
2019-03-28T08:40:08.034Z,1029.28
2019-03-28T08:41:08.050Z,1029.28
2019-03-28T08:42:08.095Z,1029.31
2019-03-28T08:43:08.110Z,1029.35
2019-03-28T08:44:08.142Z,1029.35
2019-03-28T08:45:08.149Z,1029.35
2019-03-28T08:46:08.848Z,1029.35
2019-03-28T08:47:08.196Z,1029.32
2019-03-28T08:48:08.230Z,1029.37
2019-03-28T08:49:08.255Z,1029.36
2019-03-28T08:50:08.261Z,1029.40
2019-03-28T08:51:08.291Z,1029.40
2019-03-28T08:52:11.520Z,1029.44
2019-03-28T08:53:08.326Z,1029.39
2019-03-28T08:54:08.355Z,1029.40
2019-03-28T08:55:10.171Z,1029.39
2019-03-28T08:56:08.412Z,1029.41
2019-03-28T08:57:08.423Z,1029.43
2019-03-28T08:58:08.448Z,1029.45
2019-03-28T08:59:08.484Z,1029.49
2019-03-28T09:00:08.491Z,1029.54
2019-03-28T09:01:08.536Z,1029.54
2019-03-28T09:02:08.554Z,1029.56
2019-03-28T09:03:08.569Z,1029.55
2019-03-28T09:04:08.593Z,1029.57
2019-03-28T09:05:08.614Z,1029.57
2019-03-28T09:06:08.632Z,1029.53
2019-03-28T09:07:08.651Z,1029.52
2019-03-28T09:08:08.676Z,1029.49
2019-03-28T09:09:08.704Z,1029.53
2019-03-28T09:10:08.730Z,1029.46
2019-03-28T09:11:08.748Z,1029.48
2019-03-28T09:12:08.767Z,1029.51
2019-03-28T09:13:08.793Z,1029.51
2019-03-28T09:14:08.817Z,1029.53
2019-03-28T09:15:08.837Z,1029.52
2019-03-28T09:16:08.867Z,1029.46
2019-03-28T09:17:08.885Z,1029.46
2019-03-28T09:18:08.914Z,1029.42
2019-03-28T09:19:08.937Z,1029.40
2019-03-28T09:20:08.956Z,1029.39
2019-03-28T09:21:08.980Z,1029.41
2019-03-28T09:22:09.012Z,1029.42
2019-03-28T09:23:09.025Z,1029.42
2019-03-28T09:24:09.052Z,1029.47
2019-03-28T09:25:09.063Z,1029.46
2019-03-28T09:26:09.097Z,1029.47
2019-03-28T09:27:09.115Z,1029.48
2019-03-28T09:28:09.170Z,1029.46
2019-03-28T09:29:09.164Z,1029.44
2019-03-28T09:30:09.185Z,1029.47
2019-03-28T09:31:19.261Z,1029.45
2019-03-28T09:32:09.237Z,1029.45
2019-03-28T09:33:09.259Z,1029.48
2019-03-28T09:34:09.285Z,1029.44
2019-03-28T09:35:09.300Z,1029.45
2019-03-28T09:36:09.325Z,1029.45
2019-03-28T09:37:09.349Z,1029.47
2019-03-28T09:38:09.379Z,1029.47
2019-03-28T09:39:09.398Z,1029.48
2019-03-28T09:40:09.428Z,1029.48
2019-03-28T09:41:09.443Z,1029.47
2019-03-28T09:42:09.492Z,1029.49
2019-03-28T09:43:09.485Z,1029.48
2019-03-28T09:44:09.508Z,1029.48
2019-03-28T09:45:09.526Z,1029.47
2019-03-28T09:46:09.561Z,1029.41
2019-03-28T09:47:09.580Z,1029.45
2019-03-28T09:48:11.599Z,1029.44
2019-03-28T09:49:09.635Z,1029.41
2019-03-28T09:50:09.660Z,1029.40
2019-03-28T09:51:09.676Z,1029.41
2019-03-28T09:52:09.696Z,1029.38
2019-03-28T09:53:09.719Z,1029.35
2019-03-28T09:54:09.739Z,1029.37
2019-03-28T09:55:09.775Z,1029.36
2019-03-28T09:56:09.786Z,1029.38
2019-03-28T09:57:09.809Z,1029.36
2019-03-28T09:58:09.853Z,1029.39
2019-03-28T09:59:09.864Z,1029.37
2019-03-28T10:00:09.888Z,1029.40
2019-03-28T10:01:09.901Z,1029.36
2019-03-28T10:02:09.935Z,1029.41
2019-03-28T10:03:09.956Z,1029.39
2019-03-28T10:04:09.977Z,1029.42
2019-03-28T10:05:09.997Z,1029.37
2019-03-28T10:06:10.030Z,1029.41
2019-03-28T10:07:10.048Z,1029.40
2019-03-28T10:08:10.086Z,1029.42
2019-03-28T10:09:10.109Z,1029.42
2019-03-28T10:10:10.122Z,1029.40
2019-03-28T10:11:10.135Z,1029.40
2019-03-28T10:12:10.183Z,1029.39
2019-03-28T10:13:10.184Z,1029.46
2019-03-28T10:14:10.211Z,1029.46
2019-03-28T10:15:10.236Z,1029.45
2019-03-28T10:16:10.254Z,1029.47
2019-03-28T10:17:10.287Z,1029.48
2019-03-28T10:18:10.328Z,1029.50
2019-03-28T10:19:10.325Z,1029.47
2019-03-28T10:20:10.350Z,1029.49
2019-03-28T10:21:10.369Z,1029.49
2019-03-28T10:22:10.396Z,1029.51
2019-03-28T10:23:10.416Z,1029.51
2019-03-28T10:24:11.510Z,1029.49
2019-03-28T10:25:12.603Z,1029.54
2019-03-28T10:26:10.491Z,1029.54
2019-03-28T10:27:10.507Z,1029.57
2019-03-28T10:28:10.546Z,1029.58
2019-03-28T10:29:10.563Z,1029.60
2019-03-28T10:30:10.589Z,1029.61
2019-03-28T10:31:16.465Z,1029.58
2019-03-28T10:32:10.631Z,1029.60
2019-03-28T10:33:10.657Z,1029.56
2019-03-28T10:34:10.692Z,1029.59
2019-03-28T10:35:10.718Z,1029.60
2019-03-28T10:36:10.728Z,1029.62
2019-03-28T10:37:10.758Z,1029.63
2019-03-28T10:38:10.778Z,1029.64
2019-03-28T10:39:10.795Z,1029.66
2019-03-28T10:40:10.816Z,1029.58
2019-03-28T10:41:10.848Z,1029.59
2019-03-28T10:42:10.864Z,1029.60
2019-03-28T10:43:10.886Z,1029.60
2019-03-28T10:44:10.915Z,1029.58
2019-03-28T10:45:10.936Z,1029.60
2019-03-28T10:46:10.966Z,1029.56
2019-03-28T10:47:10.992Z,1029.56
2019-03-28T10:48:11.008Z,1029.57
2019-03-28T10:49:11.021Z,1029.61
2019-03-28T10:50:11.056Z,1029.62
2019-03-28T10:51:11.078Z,1029.57
2019-03-28T10:52:12.102Z,1029.56
2019-03-28T10:53:11.122Z,1029.57
2019-03-28T10:54:19.989Z,1029.59
2019-03-28T10:55:11.170Z,1029.54
2019-03-28T10:56:21.631Z,1029.54
2019-03-28T10:57:15.568Z,1029.52
2019-03-28T10:58:18.804Z,1029.53
2019-03-28T10:59:22.750Z,1029.54
2019-03-28T11:00:23.496Z,1029.53
2019-03-28T11:01:11.310Z,1029.51
2019-03-28T11:02:11.337Z,1029.54
2019-03-28T11:03:11.361Z,1029.49
2019-03-28T11:04:11.377Z,1029.54
2019-03-28T11:05:11.415Z,1029.54
2019-03-28T11:06:11.434Z,1029.59
2019-03-28T11:07:11.467Z,1029.63
2019-03-28T11:08:11.496Z,1029.62
2019-03-28T11:09:11.500Z,1029.63
2019-03-28T11:10:11.527Z,1029.62
2019-03-28T11:11:11.548Z,1029.63
2019-03-28T11:12:11.576Z,1029.66
2019-03-28T11:13:11.616Z,1029.68
2019-03-28T11:14:11.621Z,1029.68
2019-03-28T11:15:11.643Z,1029.69
2019-03-28T11:16:14.881Z,1029.70
2019-03-28T11:17:11.685Z,1029.70
2019-03-28T11:18:11.711Z,1029.75
2019-03-28T11:19:11.732Z,1029.76
2019-03-28T11:20:11.794Z,1029.74
2019-03-28T11:21:11.792Z,1029.78
2019-03-28T11:22:11.803Z,1029.80
2019-03-28T11:23:11.838Z,1029.82
2019-03-28T11:24:11.850Z,1029.83
2019-03-28T11:25:11.872Z,1029.86
2019-03-28T11:26:11.907Z,1029.89
2019-03-28T11:27:11.944Z,1029.85
2019-03-28T11:28:11.996Z,1029.92
2019-03-28T11:29:11.974Z,1029.91
2019-03-28T11:30:11.990Z,1029.90
2019-03-28T11:31:12.021Z,1029.87
2019-03-28T11:32:12.034Z,1029.89
2019-03-28T11:33:12.089Z,1029.89
2019-03-28T11:34:12.101Z,1029.93
2019-03-28T11:35:12.111Z,1029.87
2019-03-28T11:36:12.136Z,1029.93
2019-03-28T11:37:25.415Z,1029.90
2019-03-28T11:38:12.176Z,1029.91
2019-03-28T11:39:12.202Z,1029.88
2019-03-28T11:40:12.957Z,1029.91
2019-03-28T11:41:12.250Z,1029.94
2019-03-28T11:42:12.282Z,1029.94
2019-03-28T11:43:12.982Z,1029.89
2019-03-28T11:44:12.327Z,1029.87
2019-03-28T11:45:12.340Z,1029.87
2019-03-28T11:46:12.369Z,1029.89
2019-03-28T11:47:12.396Z,1029.88
2019-03-28T11:48:12.471Z,1029.91
2019-03-28T11:49:12.438Z,1029.92
2019-03-28T11:50:12.474Z,1029.98
2019-03-28T11:51:12.480Z,1029.98
2019-03-28T11:52:12.511Z,1030.02
2019-03-28T11:53:12.542Z,1030.02
2019-03-28T11:54:12.554Z,1030.05
2019-03-28T11:55:12.587Z,1030.05
2019-03-28T11:56:12.598Z,1030.04
2019-03-28T11:57:15.662Z,1030.06
2019-03-28T11:58:12.652Z,1030.05
2019-03-28T11:59:12.691Z,1030.02
2019-03-28T12:00:12.708Z,1030.05
2019-03-28T12:01:12.718Z,1030.07
2019-03-28T12:02:19.707Z,1030.07
2019-03-28T12:03:12.774Z,1030.04
2019-03-28T12:04:12.783Z,1030.02
2019-03-28T12:05:12.820Z,1030.03
2019-03-28T12:06:12.846Z,1030.05